Topi Weather



Topi's Current Weather

Temprature 15.29o haze

haze

Rain: 0 %

Min Temprature14o
Max Temprature16.67o
Humidity82
Wind Speed3.1 m/h
Sun Rise06:42:02
Sun Set18:03:06
Current Time: 27-Feb-2020 01:41:53
Lat/Lon: 34.07, 72.62




Topi's Geo Location



Topi's Weather Forecast

Time Overall Temp Min Temp Max Temp Humidity Wind Speed Rain
27-Feb-2020 (Thu)
02:00:00 overcast clouds 14.670 14.670 15.140 38 1.65 m/h 0 %
05:00:00 overcast clouds 14.100 14.100 14.450 35 0.54 m/h 0 %
08:00:00 overcast clouds 15.460 15.460 15.700 40 0.95 m/h 0 %
11:00:00 broken clouds 21.250 21.250 21.370 27 0.79 m/h 0 %
14:00:00 scattered clouds 25.100 25.100 25.100 23 1.07 m/h 0 %
17:00:00 few clouds 24.130 24.130 24.130 35 1.14 m/h 0 %
20:00:00 clear sky 17.840 17.840 17.840 43 1.72 m/h 0 %
23:00:00 light rain 16.850 16.850 16.850 48 1.29 m/h 31 %
28-Feb-2020 (Fri)
02:00:00 overcast clouds 15.790 15.790 15.790 60 2.67 m/h 0 %
05:00:00 overcast clouds 13.080 13.080 13.080 75 3.26 m/h 0 %
08:00:00 light rain 14.220 14.220 14.220 71 2.9 m/h 13 %
11:00:00 overcast clouds 20.340 20.340 20.340 48 3.56 m/h 0 %
14:00:00 overcast clouds 22.730 22.730 22.730 44 3.23 m/h 0 %
17:00:00 overcast clouds 21.400 21.400 21.400 53 1.95 m/h 0 %
20:00:00 broken clouds 15.650 15.650 15.650 67 2.92 m/h 0 %
23:00:00 broken clouds 14.420 14.420 14.420 71 3.2 m/h 0 %
29-Feb-2020 (Sat)
02:00:00 light rain 14.180 14.180 14.180 83 3.19 m/h 131 %
05:00:00 moderate rain 14.040 14.040 14.040 85 2.32 m/h 313 %
08:00:00 overcast clouds 13.850 13.850 13.850 88 5.69 m/h 0 %
11:00:00 light rain 16.880 16.880 16.880 74 4.57 m/h 44 %
14:00:00 light rain 17.850 17.850 17.850 68 6.07 m/h 113 %
17:00:00 light rain 16.070 16.070 16.070 72 4.66 m/h 100 %
20:00:00 light rain 12.810 12.810 12.810 86 2.31 m/h 119 %
23:00:00 light rain 13.200 13.200 13.200 82 2.68 m/h 12 %
01-Mar-2020 (Sun)
02:00:00 scattered clouds 11.140 11.140 11.140 86 1.77 m/h 0 %
05:00:00 scattered clouds 11.170 11.170 11.170 84 0.97 m/h 0 %
08:00:00 broken clouds 12.870 12.870 12.870 77 0.9 m/h 0 %
11:00:00 broken clouds 17.590 17.590 17.590 58 2.73 m/h 0 %
14:00:00 clear sky 22.790 22.790 22.790 41 2.8 m/h 0 %
17:00:00 clear sky 21.880 21.880 21.880 50 2.78 m/h 0 %
20:00:00 clear sky 16.310 16.310 16.310 60 1.37 m/h 0 %
23:00:00 clear sky 14.970 14.970 14.970 66 1.15 m/h 0 %
02-Mar-2020 (Mon)
02:00:00 clear sky 13.950 13.950 13.950 68 0.71 m/h 0 %
05:00:00 clear sky 12.580 12.580 12.580 67 0.7 m/h 0 %
08:00:00 scattered clouds 14.900 14.900 14.900 57 0.68 m/h 0 %
11:00:00 broken clouds 20.540 20.540 20.540 40 2.24 m/h 0 %
14:00:00 broken clouds 24.330 24.330 24.330 32 2.76 m/h 0 %
17:00:00 scattered clouds 23.310 23.310 23.310 41 1.7 m/h 0 %
20:00:00 clear sky 17.680 17.680 17.680 47 1.32 m/h 0 %
23:00:00 clear sky 15.870 15.870 15.870 54 1.8 m/h 0 %

Famous Cities (61)